createdAt,value
2022-12-23T00:00:23.408Z,107.10
2022-12-23T00:01:30.419Z,83.40
2022-12-23T00:02:32.045Z,105.07
2022-12-23T00:03:34.149Z,82.95
2022-12-23T00:04:35.734Z,100.80
2022-12-23T00:05:38.776Z,79.63
2022-12-23T00:06:40.192Z,75.38
2022-12-23T00:07:41.597Z,68.70
2022-12-23T00:08:43.333Z,78.22
2022-12-23T00:09:44.766Z,92.38
2022-12-23T00:10:50.338Z,80.43
2022-12-23T00:12:10.045Z,92.63
2022-12-23T00:13:30.387Z,58.42
2022-12-23T00:14:50.324Z,49.30
2022-12-23T00:16:00.173Z,53.65
2022-12-23T00:17:01.728Z,57.45
2022-12-23T00:18:03.252Z,68.15
2022-12-23T00:19:05.281Z,62.33
2022-12-23T00:21:11.116Z,52.45
2022-12-23T00:22:12.527Z,73.97
2022-12-23T00:23:13.945Z,67.00
2022-12-23T00:24:15.344Z,63.85
2022-12-23T00:25:16.864Z,69.57
2022-12-23T00:26:21.381Z,96.72
2022-12-23T00:27:22.766Z,94.40
2022-12-23T00:28:25.674Z,90.43
2022-12-23T00:29:27.103Z,90.95
2022-12-23T00:30:28.647Z,97.95
2022-12-23T00:31:30.109Z,106.82
2022-12-23T00:32:31.646Z,149.18
2022-12-23T00:33:38.778Z,140.38
2022-12-23T00:34:40.212Z,168.82
2022-12-23T00:35:42.914Z,109.07
2022-12-23T00:36:44.412Z,178.85
2022-12-23T00:37:45.848Z,157.15
2022-12-23T00:39:06.162Z,107.90
2022-12-23T00:40:31.399Z,105.55
2022-12-23T00:41:51.672Z,85.50
2022-12-23T00:42:55.697Z,81.97
2022-12-23T00:43:57.844Z,94.07
2022-12-23T00:45:15.603Z,102.10
2022-12-23T00:46:17.538Z,118.85
2022-12-23T00:47:37.422Z,108.18
2022-12-23T00:48:57.104Z,83.55
2022-12-23T00:49:58.546Z,117.07
2022-12-23T00:51:00.128Z,111.45
2022-12-23T00:52:02.164Z,186.57
2022-12-23T00:54:05.293Z,95.97
2022-12-23T00:55:07.252Z,140.05
2022-12-23T00:56:08.690Z,136.07
2022-12-23T00:57:10.385Z,98.57
2022-12-23T00:58:11.829Z,101.93
2022-12-23T00:59:13.242Z,80.70
2022-12-23T01:00:15.355Z,109.35
2022-12-23T01:01:35.869Z,110.35
2022-12-23T01:02:56.822Z,80.15
2022-12-23T01:04:16.975Z,103.53
2022-12-23T01:06:37.849Z,117.78
2022-12-23T01:07:39.269Z,103.57
2022-12-23T01:08:40.793Z,153.95
2022-12-23T01:09:42.307Z,153.57
2022-12-23T01:10:43.719Z,207.02
2022-12-23T01:11:45.147Z,187.88
2022-12-23T01:12:46.572Z,172.27
2022-12-23T01:13:47.988Z,128.30
2022-12-23T01:14:49.831Z,122.60
2022-12-23T01:15:51.289Z,126.53
2022-12-23T01:16:52.791Z,140.90
2022-12-23T01:17:54.326Z,132.27
2022-12-23T01:18:55.744Z,153.93
2022-12-23T01:19:57.192Z,151.38
2022-12-23T01:21:05.335Z,185.35
2022-12-23T01:22:06.795Z,195.23
2022-12-23T01:23:08.259Z,189.45
2022-12-23T01:24:09.827Z,144.48
2022-12-23T01:25:11.444Z,269.77
2022-12-23T01:26:13.043Z,188.43
2022-12-23T01:27:14.510Z,216.98
2022-12-23T01:28:15.908Z,238.02
2022-12-23T01:29:17.390Z,206.05
2022-12-23T01:30:18.944Z,179.57
2022-12-23T01:31:20.454Z,151.75
2022-12-23T01:32:22.021Z,130.13
2022-12-23T01:33:23.747Z,99.55
2022-12-23T01:34:28.475Z,110.97
2022-12-23T01:35:32.601Z,155.30
2022-12-23T01:36:34.070Z,109.05
2022-12-23T01:37:35.524Z,141.77
2022-12-23T01:38:36.971Z,174.90
2022-12-23T01:39:38.419Z,239.85
2022-12-23T01:40:42.326Z,408.08
2022-12-23T01:42:02.141Z,261.15
2022-12-23T01:43:04.035Z,172.90
2022-12-23T01:44:43.128Z,178.02
2022-12-23T01:45:45.036Z,218.57
2022-12-23T01:46:46.495Z,283.40
2022-12-23T01:47:54.239Z,338.67
2022-12-23T01:48:56.513Z,192.98
2022-12-23T01:50:01.309Z,134.60
2022-12-23T01:51:16.284Z,192.45
2022-12-23T01:52:18.267Z,208.98
2022-12-23T01:53:22.385Z,175.15
2022-12-23T01:54:23.860Z,137.38
2022-12-23T01:55:29.155Z,280.90
2022-12-23T01:56:39.721Z,258.15
2022-12-23T01:57:42.897Z,284.77
2022-12-23T01:58:46.484Z,243.20
2022-12-23T02:00:06.596Z,217.73
2022-12-23T02:02:49.452Z,99.70
2022-12-23T02:03:55.775Z,121.50
2022-12-23T02:04:58.013Z,105.82
2022-12-23T02:06:22.304Z,93.63
2022-12-23T02:07:42.096Z,122.45
2022-12-23T02:09:02.459Z,149.32
2022-12-23T02:10:05.256Z,107.85
2022-12-23T02:11:30.137Z,107.93
2022-12-23T02:12:34.346Z,96.03
2022-12-23T02:13:38.805Z,102.65
2022-12-23T02:15:17.225Z,126.45
2022-12-23T02:16:18.811Z,146.02
2022-12-23T02:17:31.972Z,126.13
2022-12-23T02:18:48.611Z,117.13
2022-12-23T02:20:13.523Z,118.60
2022-12-23T02:21:29.760Z,124.28
2022-12-23T02:22:49.995Z,117.80
2022-12-23T02:25:17.396Z,146.50
2022-12-23T02:26:27.834Z,261.05
2022-12-23T02:27:54.454Z,126.15
2022-12-23T02:29:31.681Z,132.98
2022-12-23T02:30:57.652Z,148.02
2022-12-23T02:32:20.474Z,101.38
2022-12-23T02:34:06.959Z,112.25
2022-12-23T02:35:24.759Z,120.15
2022-12-23T02:36:42.820Z,109.45
2022-12-23T02:37:51.313Z,111.60
2022-12-23T02:39:12.619Z,133.93
2022-12-23T02:40:32.894Z,118.30
2022-12-23T02:41:54.470Z,82.28
2022-12-23T02:43:17.383Z,96.45
2022-12-23T02:45:01.786Z,119.93
2022-12-23T02:46:23.415Z,161.00
2022-12-23T02:47:38.080Z,198.48
2022-12-23T02:48:57.997Z,197.10
2022-12-23T02:50:06.127Z,137.73
2022-12-23T02:51:10.812Z,275.42
2022-12-23T02:52:15.388Z,175.30
2022-12-23T02:53:30.003Z,226.40
2022-12-23T02:54:39.440Z,72.95
2022-12-23T02:55:44.277Z,118.93
2022-12-23T02:56:51.001Z,81.88
2022-12-23T02:57:55.494Z,110.55
2022-12-23T02:59:01.601Z,125.75
2022-12-23T03:00:05.434Z,127.55
2022-12-23T03:01:08.136Z,184.77
2022-12-23T03:02:09.888Z,205.27
2022-12-23T03:03:11.624Z,211.90
2022-12-23T03:04:14.701Z,263.90
2022-12-23T03:05:31.150Z,221.77
2022-12-23T03:06:39.299Z,278.75
2022-12-23T03:07:45.616Z,304.70
2022-12-23T03:08:49.677Z,158.35
2022-12-23T03:10:03.109Z,220.82
2022-12-23T03:11:20.269Z,219.30
2022-12-23T03:12:27.862Z,192.50
2022-12-23T03:13:32.263Z,96.50
2022-12-23T03:14:49.705Z,152.15
2022-12-23T03:16:06.395Z,101.00
2022-12-23T03:18:09.182Z,128.93
2022-12-23T03:19:32.411Z,126.95
2022-12-23T03:20:43.142Z,136.38
2022-12-23T03:22:06.264Z,165.38
2022-12-23T03:23:07.599Z,127.22
2022-12-23T03:24:24.501Z,154.70
2022-12-23T03:25:44.902Z,191.40
2022-12-23T03:26:57.544Z,239.48
2022-12-23T03:28:05.946Z,301.98
2022-12-23T03:29:37.912Z,130.00
2022-12-23T03:30:47.465Z,81.25
2022-12-23T03:31:50.629Z,125.75
2022-12-23T03:33:14.071Z,107.38
2022-12-23T03:34:19.870Z,159.88
2022-12-23T03:35:29.963Z,146.85
2022-12-23T03:36:36.891Z,122.30
2022-12-23T03:37:43.812Z,113.55
2022-12-23T03:38:45.873Z,118.97
2022-12-23T03:40:58.196Z,109.57
2022-12-23T03:42:06.039Z,110.80
2022-12-23T03:43:13.877Z,129.13
2022-12-23T03:44:24.245Z,139.02
2022-12-23T03:45:40.359Z,128.00
2022-12-23T03:47:04.793Z,130.75
2022-12-23T03:48:14.949Z,107.93
2022-12-23T03:49:37.964Z,110.15
2022-12-23T03:50:42.760Z,148.07
2022-12-23T03:52:13.459Z,158.70
2022-12-23T03:54:05.160Z,93.30
2022-12-23T03:55:11.624Z,91.18
2022-12-23T03:56:18.987Z,99.50
2022-12-23T03:57:26.030Z,145.90
2022-12-23T03:58:43.018Z,101.35
2022-12-23T03:59:50.424Z,128.95
2022-12-23T04:01:04.527Z,100.30
2022-12-23T04:03:38.008Z,77.50
2022-12-23T04:04:54.285Z,119.00
2022-12-23T04:06:01.643Z,106.00
2022-12-23T04:07:36.849Z,89.55
2022-12-23T04:08:39.615Z,127.07
2022-12-23T04:09:42.552Z,136.68
2022-12-23T04:10:44.203Z,192.27
2022-12-23T04:11:45.827Z,130.43
2022-12-23T04:12:47.862Z,123.03
2022-12-23T04:14:51.640Z,98.75
2022-12-23T04:15:53.391Z,88.72
2022-12-23T04:16:58.375Z,119.22
2022-12-23T04:17:59.916Z,156.57
2022-12-23T04:19:01.349Z,198.65
2022-12-23T04:20:03.016Z,218.48
2022-12-23T04:21:07.147Z,180.68
2022-12-23T04:22:08.610Z,165.38
2022-12-23T04:23:10.471Z,212.40
2022-12-23T04:24:11.971Z,216.98
2022-12-23T04:25:18.177Z,309.88
2022-12-23T04:26:19.610Z,114.13
2022-12-23T04:27:23.822Z,178.68
2022-12-23T04:28:25.243Z,168.95
2022-12-23T04:29:26.696Z,103.32
2022-12-23T04:30:33.966Z,213.52
2022-12-23T04:32:38.043Z,148.68
2022-12-23T04:33:42.320Z,175.98
2022-12-23T04:34:43.746Z,261.42
2022-12-23T04:35:45.253Z,321.77
2022-12-23T04:36:46.728Z,306.65
2022-12-23T04:37:48.772Z,270.55
2022-12-23T04:39:51.614Z,361.65
2022-12-23T04:40:53.080Z,364.30
2022-12-23T04:41:54.698Z,147.93
2022-12-23T04:42:56.145Z,229.25
2022-12-23T04:43:57.585Z,300.70
2022-12-23T04:44:59.166Z,360.63
2022-12-23T04:46:03.652Z,259.17
2022-12-23T04:47:07.130Z,428.70
2022-12-23T04:48:09.289Z,465.95
2022-12-23T04:49:11.015Z,332.30
2022-12-23T04:50:16.828Z,307.15
2022-12-23T04:51:18.259Z,270.70
2022-12-23T04:52:19.989Z,267.25
2022-12-23T04:53:21.548Z,281.75
2022-12-23T04:54:22.986Z,379.73
2022-12-23T04:55:24.455Z,358.65
2022-12-23T04:56:26.041Z,266.05
2022-12-23T04:57:29.512Z,175.88
2022-12-23T04:58:30.915Z,165.95
2022-12-23T04:59:32.450Z,395.40
2022-12-23T05:00:39.504Z,338.13
2022-12-23T05:01:42.533Z,326.70
2022-12-23T05:02:44.383Z,160.85
2022-12-23T05:03:46.705Z,334.98
2022-12-23T05:04:48.136Z,179.73
2022-12-23T05:05:49.517Z,436.48
2022-12-23T05:06:51.005Z,407.90
2022-12-23T05:07:55.434Z,450.45
2022-12-23T05:08:56.854Z,425.95
2022-12-23T05:10:01.673Z,227.32
2022-12-23T05:11:03.639Z,259.90
2022-12-23T05:12:05.127Z,193.68
2022-12-23T05:13:09.081Z,279.38
2022-12-23T05:14:11.351Z,319.45
2022-12-23T05:15:12.756Z,502.10
2022-12-23T05:16:14.388Z,135.27
2022-12-23T05:17:15.847Z,89.80
2022-12-23T05:18:17.771Z,112.22
2022-12-23T05:19:19.187Z,102.03
2022-12-23T05:20:20.614Z,144.25
2022-12-23T05:21:22.026Z,150.07
2022-12-23T05:22:23.443Z,403.63
2022-12-23T05:23:24.885Z,467.92
2022-12-23T05:24:26.343Z,561.83
2022-12-23T05:25:28.998Z,321.90
2022-12-23T05:26:30.427Z,117.05
2022-12-23T05:27:31.849Z,103.32
2022-12-23T05:28:33.547Z,98.90
2022-12-23T05:29:35.219Z,135.25
2022-12-23T05:30:36.701Z,169.73
2022-12-23T05:31:38.183Z,258.35
2022-12-23T05:32:39.673Z,358.35
2022-12-23T05:33:44.198Z,282.98
2022-12-23T05:34:48.688Z,137.85
2022-12-23T05:35:50.614Z,142.70
2022-12-23T05:36:54.763Z,92.50
2022-12-23T05:37:57.620Z,77.65
2022-12-23T05:38:59.036Z,115.85
2022-12-23T05:40:00.550Z,112.60
2022-12-23T05:41:02.861Z,280.23
2022-12-23T05:42:04.467Z,380.92
2022-12-23T05:43:05.896Z,192.65
2022-12-23T05:44:07.414Z,90.75
2022-12-23T05:45:11.353Z,170.18
2022-12-23T05:46:12.822Z,131.82
2022-12-23T05:47:14.371Z,169.50
2022-12-23T05:48:16.242Z,219.20
2022-12-23T05:49:17.662Z,243.35
2022-12-23T05:50:19.083Z,212.80
2022-12-23T05:51:20.594Z,103.65
2022-12-23T05:52:22.076Z,113.00
2022-12-23T05:53:24.575Z,87.85
2022-12-23T05:54:26.052Z,146.63
2022-12-23T05:55:27.551Z,176.60
2022-12-23T05:56:29.034Z,126.45
2022-12-23T05:57:31.950Z,124.43
2022-12-23T05:58:33.385Z,172.00
2022-12-23T05:59:34.850Z,230.77
2022-12-23T06:00:36.788Z,261.73
2022-12-23T06:01:38.333Z,202.07
2022-12-23T06:02:40.290Z,119.20
2022-12-23T06:03:42.019Z,128.13
2022-12-23T06:04:43.517Z,187.10
2022-12-23T06:05:45.070Z,340.73
2022-12-23T06:06:46.472Z,205.18
2022-12-23T06:07:47.900Z,218.57
2022-12-23T06:08:57.518Z,95.70
2022-12-23T06:10:01.045Z,108.82
2022-12-23T06:11:05.588Z,110.53
2022-12-23T06:12:07.249Z,80.97
2022-12-23T06:13:12.239Z,103.40
2022-12-23T06:14:13.742Z,119.63
2022-12-23T06:15:15.759Z,171.77
2022-12-23T06:17:20.519Z,87.25
2022-12-23T06:18:21.924Z,144.52
2022-12-23T06:19:23.356Z,69.13
2022-12-23T06:20:24.796Z,99.82
2022-12-23T06:21:26.539Z,99.90
2022-12-23T06:22:28.043Z,82.38
2022-12-23T06:23:29.714Z,81.53
2022-12-23T06:24:31.117Z,111.25
2022-12-23T06:25:32.546Z,83.05
2022-12-23T06:26:35.917Z,95.65
2022-12-23T06:27:37.292Z,73.85
2022-12-23T06:28:38.756Z,80.05
2022-12-23T06:29:40.294Z,72.65
2022-12-23T06:30:41.725Z,70.93
2022-12-23T06:31:43.240Z,88.45
2022-12-23T06:32:44.786Z,78.70
2022-12-23T06:33:46.224Z,77.03
2022-12-23T06:34:49.538Z,80.82
2022-12-23T06:35:51.028Z,120.40
2022-12-23T06:36:52.466Z,67.15
2022-12-23T06:37:53.892Z,73.47
2022-12-23T06:38:55.532Z,75.40
2022-12-23T06:39:59.699Z,88.10
2022-12-23T06:41:01.585Z,97.35
2022-12-23T06:42:03.187Z,80.93
2022-12-23T06:43:04.609Z,63.05
2022-12-23T06:44:06.551Z,60.78
2022-12-23T06:45:08.628Z,62.30
2022-12-23T06:47:11.475Z,47.00
2022-12-23T06:48:12.968Z,66.05
2022-12-23T06:49:14.469Z,54.20
2022-12-23T06:50:16.093Z,53.03
2022-12-23T06:51:19.909Z,61.65
2022-12-23T06:52:22.903Z,55.47
2022-12-23T06:53:24.332Z,63.08
2022-12-23T06:54:25.735Z,73.53
2022-12-23T06:55:27.186Z,62.17
2022-12-23T06:56:28.655Z,66.63
2022-12-23T06:57:30.111Z,65.13
2022-12-23T06:58:31.718Z,62.17
2022-12-23T06:59:33.224Z,60.03
2022-12-23T07:00:34.656Z,58.67
2022-12-23T07:01:36.171Z,56.17
2022-12-23T07:02:37.847Z,63.13
2022-12-23T07:03:39.325Z,51.25
2022-12-23T07:04:40.757Z,60.33
2022-12-23T07:05:42.165Z,70.22
2022-12-23T07:06:43.740Z,59.25
2022-12-23T07:07:45.197Z,64.22
2022-12-23T07:08:46.599Z,63.60
2022-12-23T07:09:48.073Z,76.35
2022-12-23T07:10:49.577Z,68.38
2022-12-23T07:11:51.020Z,64.85
2022-12-23T07:12:52.420Z,66.85
2022-12-23T07:13:53.811Z,49.03
2022-12-23T07:14:55.219Z,54.40
2022-12-23T07:15:56.714Z,56.60
2022-12-23T07:16:58.353Z,46.80
2022-12-23T07:17:59.816Z,50.08
2022-12-23T07:19:01.221Z,46.33
2022-12-23T07:20:03.680Z,51.60
2022-12-23T07:21:06.431Z,57.92
2022-12-23T07:22:10.413Z,57.53
2022-12-23T07:23:11.817Z,55.00
2022-12-23T07:24:13.233Z,42.38
2022-12-23T07:25:14.706Z,57.17
2022-12-23T07:26:16.323Z,53.55
2022-12-23T07:27:17.757Z,61.97
2022-12-23T07:28:19.214Z,70.57
2022-12-23T07:29:20.580Z,55.42
2022-12-23T07:30:23.381Z,54.63
2022-12-23T07:31:24.872Z,47.03
2022-12-23T07:32:26.322Z,52.33
2022-12-23T07:33:27.741Z,67.53
2022-12-23T07:34:29.264Z,78.00
2022-12-23T07:35:30.677Z,72.43
2022-12-23T07:36:32.089Z,74.05
2022-12-23T07:37:33.571Z,63.40
2022-12-23T07:38:35.022Z,83.43
2022-12-23T07:39:36.592Z,87.22
2022-12-23T07:40:38.086Z,78.25
2022-12-23T07:41:39.528Z,96.20
2022-12-23T07:42:46.595Z,71.75
2022-12-23T07:43:48.506Z,94.80
2022-12-23T07:44:49.899Z,93.97
2022-12-23T07:45:59.248Z,101.15
2022-12-23T07:47:01.639Z,107.15
2022-12-23T07:48:03.164Z,96.15
2022-12-23T07:49:04.805Z,81.78
2022-12-23T07:50:07.045Z,106.28
2022-12-23T07:51:08.931Z,116.07
2022-12-23T07:52:10.347Z,110.78
2022-12-23T07:53:12.108Z,142.68
2022-12-23T07:54:14.044Z,105.97
2022-12-23T07:55:16.122Z,91.82
2022-12-23T07:57:19.567Z,108.53
2022-12-23T07:58:20.962Z,79.47
2022-12-23T07:59:28.269Z,80.45
2022-12-23T08:00:29.719Z,80.57
2022-12-23T08:01:31.250Z,97.93
2022-12-23T08:02:33.245Z,79.82
2022-12-23T08:04:42.574Z,78.03
2022-12-23T08:05:47.125Z,82.25
2022-12-23T08:06:48.602Z,72.95
2022-12-23T08:07:51.616Z,63.70
2022-12-23T08:08:53.087Z,79.82
2022-12-23T08:09:57.364Z,97.07
2022-12-23T08:11:07.328Z,128.77
2022-12-23T08:12:08.804Z,144.85
2022-12-23T08:13:10.200Z,114.47
2022-12-23T08:14:14.310Z,175.55
2022-12-23T08:15:15.731Z,195.85
2022-12-23T08:16:17.256Z,169.30
2022-12-23T08:17:25.610Z,114.40
2022-12-23T08:18:29.153Z,113.82
2022-12-23T08:19:30.563Z,151.98
2022-12-23T08:20:31.988Z,110.18
2022-12-23T08:21:33.432Z,101.03
2022-12-23T08:22:34.892Z,122.93
2022-12-23T08:23:36.357Z,128.15
2022-12-23T08:24:37.858Z,112.65
2022-12-23T08:25:39.276Z,133.10
2022-12-23T08:26:40.741Z,135.73
2022-12-23T08:27:42.141Z,165.77
2022-12-23T08:28:44.813Z,163.77
2022-12-23T08:29:46.311Z,137.25
2022-12-23T08:30:47.788Z,119.43
2022-12-23T08:31:50.400Z,125.38
2022-12-23T08:32:51.816Z,90.45
2022-12-23T08:33:55.621Z,98.07
2022-12-23T08:34:57.630Z,117.90
2022-12-23T08:37:00.615Z,89.35
2022-12-23T08:38:02.013Z,138.40
2022-12-23T08:39:07.478Z,118.75
2022-12-23T08:40:09.397Z,91.15
2022-12-23T08:41:13.428Z,136.68
2022-12-23T08:42:15.245Z,90.80
2022-12-23T08:43:16.683Z,99.60
2022-12-23T08:44:18.313Z,74.57
2022-12-23T08:45:19.827Z,84.95
2022-12-23T08:46:22.142Z,74.25
2022-12-23T08:47:23.632Z,69.55
2022-12-23T08:48:25.048Z,65.82
2022-12-23T08:49:26.484Z,67.28
2022-12-23T08:50:27.913Z,61.20
2022-12-23T08:51:29.478Z,53.13
2022-12-23T08:52:30.891Z,57.42
2022-12-23T08:53:33.294Z,58.42
2022-12-23T08:54:34.747Z,75.15
2022-12-23T08:55:41.249Z,67.90
2022-12-23T08:56:43.336Z,79.07
2022-12-23T08:58:48.731Z,59.47
2022-12-23T08:59:51.726Z,76.65
2022-12-23T09:00:53.169Z,53.25
2022-12-23T09:01:54.824Z,61.95
2022-12-23T09:02:56.465Z,78.78
2022-12-23T09:03:58.383Z,82.35
2022-12-23T09:04:59.863Z,63.00
2022-12-23T09:06:06.704Z,78.90
2022-12-23T09:07:08.128Z,91.45
2022-12-23T09:08:09.603Z,92.43
2022-12-23T09:09:13.269Z,75.60
2022-12-23T09:10:14.747Z,59.95
2022-12-23T09:11:19.283Z,53.67
2022-12-23T09:12:20.728Z,55.70
2022-12-23T09:13:30.795Z,53.03
2022-12-23T09:15:44.818Z,55.08
2022-12-23T09:16:46.264Z,75.55
2022-12-23T09:17:47.697Z,70.18
2022-12-23T09:18:49.202Z,83.55
2022-12-23T09:19:53.255Z,67.57
2022-12-23T09:21:00.019Z,55.13
2022-12-23T09:22:01.469Z,70.57
2022-12-23T09:23:03.874Z,69.53
2022-12-23T09:24:05.739Z,78.93
2022-12-23T09:25:07.677Z,55.65
2022-12-23T09:26:10.418Z,102.55
2022-12-23T09:27:12.233Z,65.00
2022-12-23T09:28:13.667Z,74.00
2022-12-23T09:29:15.201Z,75.90
2022-12-23T09:30:16.724Z,73.32
2022-12-23T09:31:18.758Z,72.72
2022-12-23T09:33:21.854Z,45.35
2022-12-23T09:34:23.365Z,57.63
2022-12-23T09:35:25.467Z,49.28
2022-12-23T09:37:28.306Z,42.15
2022-12-23T09:38:30.039Z,37.55
2022-12-23T09:39:31.665Z,38.88
2022-12-23T09:40:36.444Z,34.97
2022-12-23T09:41:48.420Z,42.97
2022-12-23T09:43:13.195Z,31.58
2022-12-23T09:44:32.273Z,35.70
2022-12-23T09:45:55.800Z,28.10
2022-12-23T09:47:03.014Z,28.88
2022-12-23T09:48:08.638Z,28.05
2022-12-23T09:49:16.680Z,28.70
2022-12-23T09:51:31.457Z,24.02
2022-12-23T09:52:57.675Z,26.60
2022-12-23T09:54:17.476Z,29.45
2022-12-23T09:56:58.032Z,28.50
2022-12-23T09:58:04.582Z,28.27
2022-12-23T09:59:43.613Z,23.77
2022-12-23T10:01:02.158Z,27.63
2022-12-23T10:02:30.059Z,26.17
2022-12-23T10:03:47.669Z,28.88
2022-12-23T10:05:23.445Z,29.52
2022-12-23T10:06:30.492Z,29.70
2022-12-23T10:08:02.184Z,40.40
2022-12-23T10:09:05.137Z,29.02
2022-12-23T10:10:17.794Z,36.05
2022-12-23T10:11:23.992Z,40.08
2022-12-23T10:12:30.721Z,29.90
2022-12-23T10:13:48.842Z,31.55
2022-12-23T10:14:52.544Z,34.33
2022-12-23T10:15:57.843Z,29.58
2022-12-23T10:17:05.038Z,29.65
2022-12-23T10:18:17.987Z,34.50
2022-12-23T10:19:32.065Z,33.33
2022-12-23T10:22:03.451Z,32.78
2022-12-23T10:23:13.899Z,36.42
2022-12-23T10:24:33.552Z,32.10
2022-12-23T10:25:41.266Z,34.78
2022-12-23T10:26:51.290Z,37.47
2022-12-23T10:27:52.839Z,49.72
2022-12-23T10:29:25.049Z,33.58
2022-12-23T10:30:57.271Z,40.15
2022-12-23T10:32:19.379Z,33.30
2022-12-23T10:33:49.327Z,28.73
2022-12-23T10:35:01.031Z,39.40
2022-12-23T10:36:43.343Z,35.90
2022-12-23T10:37:55.083Z,34.42
2022-12-23T10:39:28.089Z,39.20
2022-12-23T10:40:46.781Z,36.45
2022-12-23T10:42:14.811Z,36.00
2022-12-23T10:43:25.015Z,35.83
2022-12-23T10:44:47.709Z,36.22
2022-12-23T10:46:20.408Z,32.40
2022-12-23T10:47:38.826Z,33.28
2022-12-23T10:48:52.299Z,32.05
2022-12-23T10:50:27.997Z,33.63
2022-12-23T10:51:49.706Z,31.05
2022-12-23T10:52:52.793Z,28.73
2022-12-23T10:53:59.828Z,30.08
2022-12-23T10:55:01.558Z,34.47
2022-12-23T10:56:04.040Z,36.05
2022-12-23T10:57:07.009Z,36.58
2022-12-23T10:58:18.238Z,32.33
2022-12-23T10:59:26.366Z,31.25
2022-12-23T11:00:28.011Z,36.13
2022-12-23T11:01:31.598Z,29.25
2022-12-23T11:02:51.921Z,26.52
2022-12-23T11:04:06.318Z,22.25
2022-12-23T11:05:19.913Z,26.85
2022-12-23T11:06:22.107Z,32.63
2022-12-23T11:07:44.695Z,25.63
2022-12-23T11:08:47.507Z,24.27
2022-12-23T11:09:54.056Z,29.65
2022-12-23T11:10:56.032Z,23.88
2022-12-23T11:13:02.735Z,27.17
2022-12-23T11:14:49.935Z,30.67
2022-12-23T11:15:52.512Z,23.55
2022-12-23T11:16:54.080Z,26.50
2022-12-23T11:18:13.911Z,27.92
2022-12-23T11:19:15.908Z,36.13
2022-12-23T11:21:20.067Z,22.88
2022-12-23T11:22:24.894Z,33.38
2022-12-23T11:23:30.613Z,21.98
2022-12-23T11:24:35.467Z,23.65
2022-12-23T11:25:43.756Z,23.98
2022-12-23T11:26:48.821Z,22.05
2022-12-23T11:27:59.142Z,19.23
2022-12-23T11:29:07.052Z,22.70
2022-12-23T11:30:18.390Z,19.27
2022-12-23T11:31:38.920Z,21.52
2022-12-23T11:32:42.670Z,20.90
2022-12-23T11:34:00.500Z,18.88
2022-12-23T11:35:02.086Z,21.55
2022-12-23T11:36:14.508Z,23.98
2022-12-23T11:37:45.518Z,22.20
2022-12-23T11:38:53.470Z,21.88
2022-12-23T11:39:55.046Z,22.02
2022-12-23T11:40:56.921Z,24.08
2022-12-23T11:42:20.351Z,27.15
2022-12-23T11:43:25.341Z,22.27
2022-12-23T11:44:30.719Z,20.95
2022-12-23T11:45:35.732Z,19.55
2022-12-23T11:46:38.464Z,19.77
2022-12-23T11:47:41.771Z,23.00
2022-12-23T11:48:43.231Z,24.00
2022-12-23T11:49:51.716Z,21.02
2022-12-23T11:51:04.392Z,19.73
2022-12-23T11:52:05.785Z,21.75
2022-12-23T11:53:21.194Z,26.70
2022-12-23T11:54:22.692Z,20.85
2022-12-23T11:55:29.029Z,22.67
2022-12-23T11:56:39.005Z,19.90
2022-12-23T11:57:48.300Z,24.77
2022-12-23T11:59:03.700Z,17.85
2022-12-23T12:00:08.685Z,23.25
2022-12-23T12:01:18.723Z,19.70
2022-12-23T12:02:58.599Z,23.50
2022-12-23T12:04:03.161Z,20.38
2022-12-23T12:05:16.986Z,27.30
2022-12-23T12:06:19.781Z,23.17
2022-12-23T12:07:21.555Z,23.17
2022-12-23T12:08:28.165Z,24.45
2022-12-23T12:09:32.158Z,23.88
2022-12-23T12:10:37.335Z,24.63
2022-12-23T12:11:48.478Z,26.33
2022-12-23T12:12:55.549Z,30.40
2022-12-23T12:14:03.268Z,26.00
2022-12-23T12:15:06.451Z,24.55
2022-12-23T12:16:38.918Z,26.25
2022-12-23T12:17:46.962Z,24.77
2022-12-23T12:18:55.704Z,28.45
2022-12-23T12:20:04.732Z,24.60
2022-12-23T12:21:13.259Z,26.70
2022-12-23T12:22:57.268Z,28.92
2022-12-23T12:25:39.568Z,28.67
2022-12-23T12:26:44.094Z,29.98
2022-12-23T12:28:00.595Z,30.10
2022-12-23T12:29:22.571Z,26.13
2022-12-23T12:30:30.280Z,35.20
2022-12-23T12:31:37.695Z,30.65
2022-12-23T12:32:59.805Z,28.42
2022-12-23T12:34:01.181Z,28.23
2022-12-23T12:35:08.622Z,31.90
2022-12-23T12:36:28.629Z,29.92
2022-12-23T12:38:39.180Z,27.95
2022-12-23T12:39:53.427Z,26.10
2022-12-23T12:41:16.063Z,25.75
2022-12-23T12:42:25.817Z,24.38
2022-12-23T12:43:31.506Z,28.83
2022-12-23T12:44:37.872Z,28.83
2022-12-23T12:45:50.252Z,24.52
2022-12-23T12:47:44.635Z,24.27
2022-12-23T12:48:55.829Z,25.17
2022-12-23T12:50:02.039Z,27.55
2022-12-23T12:51:16.066Z,31.08
2022-12-23T12:53:23.900Z,30.77
2022-12-23T12:55:35.200Z,27.73
2022-12-23T12:56:48.429Z,25.60
2022-12-23T12:57:49.876Z,28.08
2022-12-23T12:58:51.298Z,26.67
2022-12-23T13:00:05.575Z,25.35
2022-12-23T13:01:17.306Z,30.70
2022-12-23T13:02:52.291Z,23.95
2022-12-23T13:04:02.566Z,27.23
2022-12-23T13:05:16.271Z,27.73
2022-12-23T13:06:43.582Z,25.90
2022-12-23T13:08:03.253Z,23.27
2022-12-23T13:09:21.562Z,20.63
2022-12-23T13:10:31.723Z,24.95
2022-12-23T13:11:48.208Z,23.27
2022-12-23T13:13:07.864Z,25.15
2022-12-23T13:14:50.775Z,27.25
2022-12-23T13:16:06.672Z,25.05
2022-12-23T13:17:28.782Z,23.77
2022-12-23T13:18:56.479Z,21.58
2022-12-23T13:20:33.622Z,14.93
2022-12-23T13:21:43.037Z,18.63
2022-12-23T13:22:49.301Z,14.43
2022-12-23T13:24:09.579Z,15.05
2022-12-23T13:25:20.488Z,14.85
2022-12-23T13:26:58.559Z,14.27
2022-12-23T13:29:44.415Z,15.02
2022-12-23T13:30:57.230Z,14.70
2022-12-23T13:32:04.504Z,18.00
2022-12-23T13:33:18.044Z,17.92
2022-12-23T13:34:42.200Z,17.75
2022-12-23T13:35:52.789Z,15.70
2022-12-23T13:37:03.763Z,13.35
2022-12-23T13:38:10.999Z,14.55
2022-12-23T13:39:34.426Z,14.45
2022-12-23T13:41:00.905Z,14.40
2022-12-23T13:42:05.955Z,14.68
2022-12-23T13:43:18.806Z,14.00
2022-12-23T13:44:21.353Z,13.13
2022-12-23T13:45:30.658Z,14.15
2022-12-23T13:46:51.809Z,12.20
2022-12-23T13:48:18.444Z,13.55
2022-12-23T13:49:44.914Z,13.40
2022-12-23T13:51:15.637Z,14.27
2022-12-23T13:52:29.477Z,15.30
2022-12-23T13:53:48.453Z,16.13
2022-12-23T13:55:34.504Z,15.38
2022-12-23T13:56:45.163Z,17.35
2022-12-23T13:58:15.843Z,16.88
2022-12-23T13:59:17.307Z,17.52
2022-12-23T14:00:24.420Z,16.95
2022-12-23T14:01:41.280Z,16.83
2022-12-23T14:02:57.941Z,16.15
2022-12-23T14:04:33.511Z,18.38
2022-12-23T14:05:52.743Z,16.08
2022-12-23T14:06:57.199Z,19.90
2022-12-23T14:08:04.716Z,16.98
2022-12-23T14:09:06.362Z,18.80
2022-12-23T14:10:19.616Z,18.30
2022-12-23T14:11:38.890Z,18.92
2022-12-23T14:12:42.534Z,18.92
2022-12-23T14:13:49.805Z,20.88
2022-12-23T14:15:16.115Z,17.77
2022-12-23T14:16:36.283Z,18.38
2022-12-23T14:17:51.881Z,18.58
2022-12-23T14:19:05.249Z,16.35
2022-12-23T14:20:37.711Z,16.83
2022-12-23T14:21:48.545Z,16.42
2022-12-23T14:23:04.105Z,19.02
2022-12-23T14:24:27.218Z,20.88
2022-12-23T14:25:50.520Z,22.42
2022-12-23T14:27:29.219Z,19.33
2022-12-23T14:28:49.768Z,19.13
2022-12-23T14:30:09.948Z,19.13
2022-12-23T14:31:57.581Z,18.00
2022-12-23T14:33:01.925Z,20.88
2022-12-23T14:34:31.206Z,20.65
2022-12-23T14:35:38.557Z,20.88
2022-12-23T14:37:20.777Z,20.55
2022-12-23T14:38:34.588Z,16.20
2022-12-23T14:39:36.063Z,22.33
2022-12-23T14:40:37.478Z,23.83
2022-12-23T14:41:48.698Z,23.83
2022-12-23T14:42:50.175Z,22.48
2022-12-23T14:43:56.185Z,21.38
2022-12-23T14:45:36.177Z,19.60
2022-12-23T14:46:37.634Z,21.90
2022-12-23T14:47:40.451Z,22.50
2022-12-23T14:48:42.132Z,25.48
2022-12-23T14:49:43.997Z,22.30
2022-12-23T14:51:01.968Z,25.30
2022-12-23T14:52:44.332Z,25.65
2022-12-23T14:53:52.369Z,23.13
2022-12-23T14:55:28.003Z,19.25
2022-12-23T14:56:15.258Z,24.00
2022-12-23T14:57:25.749Z,22.65
2022-12-23T14:58:37.630Z,19.83
2022-12-23T14:59:51.305Z,22.20